Time;durP1;ratioP1;P1;durP2;ratioP2;P2;SDS_P1;SDS_P2;PMS_P1;PMS_P2;Temp;Humidity;BMP_temperature;BMP_pressure;BME280_temperature;BME280_humidity;BME280_pressure;Samples;Min_cycle;Max_cycle;Signal;HPM_P1;HPM_P2
2021/11/14 00:00:20;;;;;;;;;;;;;;;20.77;38.09;95539.09;1020842;29;1128;-61
2021/11/14 00:00:54;;;;;;;;;;;;;;;20.76;37.71;95534.91;1021240;29;750;-62
2021/11/14 00:01:25;;;;;;;;;;;;;;;20.76;38.24;95534.91;1020014;29;813;-62
2021/11/14 00:01:55;;;;;;;;;;;;;;;20.77;37.92;95533.81;1021546;29;964;-61
2021/11/14 00:02:26;;;;;;;;;;;;;;;20.78;38.21;95534.59;1022161;29;792;-62
2021/11/14 00:02:57;;;;;;;;;;;;;;;20.78;37.70;95534.59;1026336;29;785;-61
2021/11/14 00:03:28;;;;;;;;;;;;;;;20.77;38.02;95539.09;1026158;29;809;-62
2021/11/14 00:04:01;;;;;;;;;;;;;;;20.80;37.72;95530.63;1021431;29;1249;-63
2021/11/14 00:04:31;;;;;;;;;;;;;;;20.78;38.07;95539.88;1017324;29;785;-64
2021/11/14 00:05:02;;;;;;;;;;;;;;;20.76;38.33;95537.53;1018696;29;1009;-62
2021/11/14 00:05:33;;;;;;;;;;;;;;;20.75;38.19;95529.91;1022561;29;865;-62
2021/11/14 00:06:04;;;;;;;;;;;;;;;20.74;37.95;95537.03;1025795;29;852;-61
2021/11/14 00:06:35;;;;;;;;;;;;;;;20.74;38.56;95533.59;1025418;29;1300;-61
2021/11/14 00:07:06;;;;;;;;;;;;;;;20.74;38.22;95534.38;1022033;29;817;-62
2021/11/14 00:07:37;;;;;;;;;;;;;;;20.76;38.06;95537.53;1021120;29;805;-62
2021/11/14 00:08:08;;;;;;;;;;;;;;;20.75;38.02;95537.81;1021105;29;960;-62
2021/11/14 00:08:42;;;;;;;;;;;;;;;20.77;37.84;95533.06;1021067;29;1048;-61
2021/11/14 00:09:12;;;;;;;;;;;;;;;20.75;38.07;95535.19;1024467;29;809;-62
2021/11/14 00:09:44;;;;;;;;;;;;;;;20.76;38.02;95532.25;1025134;28;835;-60
2021/11/14 00:10:14;;;;;;;;;;;;;;;20.77;38.01;95538.31;1028973;28;785;-61
2021/11/14 00:10:48;;;;;;;;;;;;;;;20.74;37.88;95529.13;1028577;28;864;-62
2021/11/14 00:11:19;;;;;;;;;;;;;;;20.74;38.25;95526.50;1024488;29;889;-62
2021/11/14 00:11:50;;;;;;;;;;;;;;;20.72;38.17;95528.63;1020867;29;912;-62
2021/11/14 00:12:20;;;;;;;;;;;;;;;20.73;38.30;95532.81;1020368;29;892;-62
2021/11/14 00:12:51;;;;;;;;;;;;;;;20.76;37.88;95534.09;1012872;29;892;-62
2021/11/14 00:13:22;;;;;;;;;;;;;;;20.78;37.83;95521.44;1016927;29;936;-62
2021/11/14 00:13:53;;;;;;;;;;;;;;;20.74;37.99;95523.84;1020907;29;1269;-62
2021/11/14 00:14:24;;;;;;;;;;;;;;;20.76;38.14;95529.63;1019942;29;840;-62
2021/11/14 00:14:55;;;;;;;;;;;;;;;20.73;38.09;95530.16;1024881;29;833;-61
2021/11/14 00:15:26;;;;;;;;;;;;;;;20.72;37.95;95523.34;1025251;29;793;-62
2021/11/14 00:15:57;;;;;;;;;;;;;;;20.73;38.24;95532.81;1023366;29;1902;-62
2021/11/14 00:16:27;;;;;;;;;;;;;;;20.76;38.16;95528.84;1024484;29;991;-62
2021/11/14 00:16:58;;;;;;;;;;;;;;;20.75;37.73;95527.28;1016697;29;909;-62
2021/11/14 00:17:28;;;;;;;;;;;;;;;20.73;38.14;95529.41;1017112;29;782;-62
2021/11/14 00:17:59;;;;;;;;;;;;;;;20.74;37.66;95523.06;1020553;29;977;-62
2021/11/14 00:18:29;;;;;;;;;;;;;;;20.74;38.09;95531.75;1016868;29;963;-61
2021/11/14 00:19:00;;;;;;;;;;;;;;;20.76;38.05;95526.19;1024401;29;848;-62
2021/11/14 00:19:30;;;;;;;;;;;;;;;20.74;37.96;95534.38;1024285;29;880;-62
2021/11/14 00:20:03;;;;;;;;;;;;;;;20.74;38.33;95536.22;1025028;29;777;-62
2021/11/14 00:20:33;;;;;;;;;;;;;;;20.72;37.97;95528.63;1024861;29;1012;-62
2021/11/14 00:21:04;;;;;;;;;;;;;;;20.73;38.32;95538.06;1020142;29;1241;-62
2021/11/14 00:21:40;;;;;;;;;;;;;;;20.72;38.26;95525.97;1020641;29;861;-62
2021/11/14 00:22:11;;;;;;;;;;;;;;;20.74;38.14;95528.31;1021640;29;782;-62
2021/11/14 00:22:41;;;;;;;;;;;;;;;20.73;38.14;95522.28;1021528;29;813;-61
2021/11/14 00:23:12;;;;;;;;;;;;;;;20.73;37.85;95524.91;1024104;28;1178;-62
2021/11/14 00:23:43;;;;;;;;;;;;;;;20.77;37.73;95527.78;1024473;29;816;-61
2021/11/14 00:24:13;;;;;;;;;;;;;;;20.74;37.71;95525.69;1020339;29;1217;-64
2021/11/14 00:24:44;;;;;;;;;;;;;;;20.71;37.93;95524.41;1024636;29;968;-61
2021/11/14 00:25:17;;;;;;;;;;;;;;;20.72;37.95;95530.47;1024791;29;805;-62
2021/11/14 00:25:48;;;;;;;;;;;;;;;20.71;37.94;95527.03;1017354;29;1507;-61
2021/11/14 00:26:18;;;;;;;;;;;;;;;20.71;37.91;95529.66;1020437;29;877;-61
2021/11/14 00:26:49;;;;;;;;;;;;;;;20.70;37.97;95532.59;1016875;29;1020;-62
2021/11/14 00:27:19;;;;;;;;;;;;;;;20.69;37.87;95526.53;1013145;29;1084;-62
2021/11/14 00:27:50;;;;;;;;;;;;;;;20.72;38.04;95525.97;1016779;29;963;-62
2021/11/14 00:28:20;;;;;;;;;;;;;;;20.71;38.04;95526.28;1017003;29;840;-62
2021/11/14 00:28:51;;;;;;;;;;;;;;;20.69;38.05;95526.53;1020764;29;723;-62
2021/11/14 00:29:21;;;;;;;;;;;;;;;20.69;38.17;95523.88;1023494;28;1743;-62
2021/11/14 00:29:51;;;;;;;;;;;;;;;20.72;37.72;95519.91;1020602;29;1424;-61
2021/11/14 00:30:22;;;;;;;;;;;;;;;20.72;38.15;95525.19;1020650;29;1036;-61
2021/11/14 00:30:52;;;;;;;;;;;;;;;20.71;37.79;95523.63;1020083;29;853;-62
2021/11/14 00:31:22;;;;;;;;;;;;;;;20.68;37.84;95522.34;1019540;29;856;-62
2021/11/14 00:31:53;;;;;;;;;;;;;;;20.68;38.00;95524.19;1024719;29;782;-62
2021/11/14 00:32:23;;;;;;;;;;;;;;;20.69;37.96;95525.75;1024330;29;789;-62
2021/11/14 00:32:54;;;;;;;;;;;;;;;20.70;37.97;95525.47;1016647;29;1397;-62
2021/11/14 00:33:24;;;;;;;;;;;;;;;20.69;38.01;95521.25;1016650;29;801;-62
2021/11/14 00:33:54;;;;;;;;;;;;;;;20.69;38.16;95526.53;1016646;29;1307;-62
2021/11/14 00:34:25;;;;;;;;;;;;;;;20.68;37.74;95522.34;1019280;29;766;-62
2021/11/14 00:34:56;;;;;;;;;;;;;;;20.68;37.85;95526.81;1024713;29;794;-62
2021/11/14 00:35:26;;;;;;;;;;;;;;;20.69;38.11;95526.53;1020266;29;1015;-62
2021/11/14 00:35:56;;;;;;;;;;;;;;;20.71;38.01;95532.28;1016523;29;1906;-62
2021/11/14 00:36:30;;;;;;;;;;;;;;;20.68;38.09;95527.59;1020574;29;916;-62
2021/11/14 00:37:01;;;;;;;;;;;;;;;20.66;38.31;95521.84;1021023;29;843;-62
2021/11/14 00:37:34;;;;;;;;;;;;;;;20.70;38.07;95525.47;1023782;29;789;-62
2021/11/14 00:38:05;;;;;;;;;;;;;;;20.68;38.07;95522.34;1028462;28;828;-62
2021/11/14 00:38:36;;;;;;;;;;;;;;;20.67;38.08;95522.63;1028324;28;903;-62
2021/11/14 00:39:11;;;;;;;;;;;;;;;20.65;38.18;95522.88;1028674;28;1090;-63
2021/11/14 00:39:41;;;;;;;;;;;;;;;20.66;37.92;95527.09;1027289;28;1517;-62
2021/11/14 00:40:13;;;;;;;;;;;;;;;20.66;38.17;95523.69;1024917;29;793;-62
2021/11/14 00:40:44;;;;;;;;;;;;;;;20.68;38.13;95524.19;1024528;29;868;-62
2021/11/14 00:41:14;;;;;;;;;;;;;;;20.66;38.06;95519.19;1024220;29;754;-62
2021/11/14 00:41:44;;;;;;;;;;;;;;;20.67;37.96;95523.38;1020283;29;999;-61
2021/11/14 00:42:15;;;;;;;;;;;;;;;20.69;37.84;95526.53;1016310;29;866;-62
2021/11/14 00:42:45;;;;;;;;;;;;;;;20.68;38.33;95527.59;1020730;29;1020;-62
2021/11/14 00:43:16;;;;;;;;;;;;;;;20.72;37.90;95523.34;1020644;29;1046;-62
2021/11/14 00:43:46;;;;;;;;;;;;;;;20.71;37.73;95528.91;1024328;29;1343;-61
2021/11/14 00:44:16;;;;;;;;;;;;;;;20.71;37.73;95521.00;1024292;28;781;-62
2021/11/14 00:44:47;;;;;;;;;;;;;;;20.70;37.96;95520.22;1024573;29;860;-62
2021/11/14 00:45:17;;;;;;;;;;;;;;;20.69;37.82;95526.53;1024587;29;940;-62
2021/11/14 00:45:47;;;;;;;;;;;;;;;20.72;37.93;95525.97;1024124;29;1114;-60
2021/11/14 00:46:18;;;;;;;;;;;;;;;20.76;37.80;95521.72;1019047;29;1066;-62
2021/11/14 00:46:51;;;;;;;;;;;;;;;20.72;37.95;95531.25;1020510;29;1047;-62
2021/11/14 00:47:21;;;;;;;;;;;;;;;20.72;37.96;95525.97;1020457;29;850;-61
2021/11/14 00:47:52;;;;;;;;;;;;;;;20.71;37.62;95528.91;1016802;29;1291;-62
2021/11/14 00:48:22;;;;;;;;;;;;;;;20.70;37.66;95528.09;1020463;29;1321;-62
2021/11/14 00:48:52;;;;;;;;;;;;;;;20.67;37.86;95528.66;1016718;29;782;-62
2021/11/14 00:49:23;;;;;;;;;;;;;;;20.70;37.55;95528.09;1020685;29;790;-62
2021/11/14 00:49:53;;;;;;;;;;;;;;;20.65;37.96;95530.78;1023905;29;869;-62
2021/11/14 00:50:23;;;;;;;;;;;;;;;20.64;37.84;95529.22;1024024;29;808;-62
2021/11/14 00:50:54;;;;;;;;;;;;;;;20.65;38.15;95536.06;1024833;29;876;-62
2021/11/14 00:51:29;;;;;;;;;;;;;;;20.65;37.72;95535.28;1024705;29;761;-62
2021/11/14 00:51:59;;;;;;;;;;;;;;;20.62;38.52;95536.63;1024345;29;758;-61
2021/11/14 00:52:29;;;;;;;;;;;;;;;20.64;37.91;95536.34;1024165;29;1051;-61
2021/11/14 00:53:01;;;;;;;;;;;;;;;20.62;37.79;95535.84;1024551;29;1019;-61
2021/11/14 00:53:31;;;;;;;;;;;;;;;20.61;38.22;95535.03;1024279;29;833;-62
2021/11/14 00:54:02;;;;;;;;;;;;;;;20.62;38.21;95533.19;1024307;29;1452;-62
2021/11/14 00:54:33;;;;;;;;;;;;;;;20.61;38.32;95535.03;1019403;29;770;-62
2021/11/14 00:55:03;;;;;;;;;;;;;;;20.64;37.92;95538.97;1016546;29;1314;-62
2021/11/14 00:55:35;;;;;;;;;;;;;;;20.65;37.72;95537.91;1016885;29;1437;-61
2021/11/14 00:56:05;;;;;;;;;;;;;;;20.69;37.51;95537.06;1020392;29;1906;-62
2021/11/14 00:56:36;;;;;;;;;;;;;;;20.75;37.70;95540.44;1023954;29;880;-62
2021/11/14 00:57:06;;;;;;;;;;;;;;;20.74;37.59;95533.59;1024693;29;857;-62
2021/11/14 00:57:37;;;;;;;;;;;;;;;20.72;37.40;95539.16;1024809;29;1052;-62
2021/11/14 00:58:07;;;;;;;;;;;;;;;20.71;37.76;95540.19;1024852;29;1063;-62
2021/11/14 00:58:37;;;;;;;;;;;;;;;20.68;37.69;95540.78;1023838;29;1257;-62
2021/11/14 00:59:08;;;;;;;;;;;;;;;20.65;37.80;95536.06;1020603;29;870;-62
2021/11/14 00:59:38;;;;;;;;;;;;;;;20.63;38.21;95538.19;1020072;29;814;-62
2021/11/14 01:00:13;;;;;;;;;;;;;;;20.62;38.24;95541.88;1020587;29;843;-62
2021/11/14 01:00:44;;;;;;;;;;;;;;;20.61;38.21;95536.91;1021004;29;1107;-62
2021/11/14 01:01:14;;;;;;;;;;;;;;;20.60;38.18;95536.13;1019209;29;842;-62
2021/11/14 01:01:44;;;;;;;;;;;;;;;20.61;38.06;95542.94;1020327;29;1391;-62
2021/11/14 01:02:15;;;;;;;;;;;;;;;20.59;38.16;95536.38;1015928;29;972;-62
2021/11/14 01:02:45;;;;;;;;;;;;;;;20.61;38.21;95536.91;1020164;29;827;-62
2021/11/14 01:03:15;;;;;;;;;;;;;;;20.60;38.40;95533.47;1020454;29;1357;-62
2021/11/14 01:03:46;;;;;;;;;;;;;;;20.61;38.17;95537.66;1020550;29;1202;-62
2021/11/14 01:04:16;;;;;;;;;;;;;;;20.59;38.25;95546.91;1023453;29;1015;-62
2021/11/14 01:04:46;;;;;;;;;;;;;;;20.62;37.99;95541.88;1019444;29;1031;-62
2021/11/14 01:05:17;;;;;;;;;;;;;;;20.63;38.31;95542.69;1023964;28;805;-62
2021/11/14 01:05:47;;;;;;;;;;;;;;;20.62;38.19;95546.38;1023792;29;999;-62
2021/11/14 01:06:18;;;;;;;;;;;;;;;20.61;38.29;95540.31;1023864;29;979;-61
2021/11/14 01:06:48;;;;;;;;;;;;;;;20.61;38.13;95545.56;1024414;29;967;-62
2021/11/14 01:07:18;;;;;;;;;;;;;;;20.60;37.97;95546.66;1024811;29;908;-62
2021/11/14 01:07:48;;;;;;;;;;;;;;;20.60;38.20;95541.38;1024877;29;706;-62
2021/11/14 01:08:19;;;;;;;;;;;;;;;20.61;38.10;95539.53;1024807;29;833;-62
2021/11/14 01:08:50;;;;;;;;;;;;;;;20.62;37.94;95541.09;1024628;29;881;-62
2021/11/14 01:09:20;;;;;;;;;;;;;;;20.61;38.28;95550.06;1020128;29;1111;-62
2021/11/14 01:09:50;;;;;;;;;;;;;;;20.61;38.24;95550.06;1020247;29;1052;-62
2021/11/14 01:10:22;;;;;;;;;;;;;;;20.61;38.23;95550.84;1020615;29;766;-62
2021/11/14 01:10:52;;;;;;;;;;;;;;;20.60;38.31;95551.91;1020355;29;837;-62
2021/11/14 01:11:23;;;;;;;;;;;;;;;20.58;38.01;95551.41;1024341;29;785;-62
2021/11/14 01:11:53;;;;;;;;;;;;;;;20.57;38.56;95547.19;1024347;29;813;-62
2021/11/14 01:12:23;;;;;;;;;;;;;;;20.58;37.93;95548.78;1024295;29;845;-62
2021/11/14 01:12:54;;;;;;;;;;;;;;;20.58;38.52;95547.97;1024328;29;817;-61
2021/11/14 01:13:24;;;;;;;;;;;;;;;20.57;38.25;95555.09;1020140;29;1306;-62
2021/11/14 01:13:54;;;;;;;;;;;;;;;20.60;38.07;95551.13;1020271;29;1289;-62
2021/11/14 01:14:25;;;;;;;;;;;;;;;20.60;38.06;95549.28;1019047;29;1442;-61
2021/11/14 01:14:55;;;;;;;;;;;;;;;20.58;38.51;95550.63;1012379;29;1302;-62
2021/11/14 01:15:25;;;;;;;;;;;;;;;20.58;38.30;95555.88;1016572;29;1190;-62
2021/11/14 01:15:56;;;;;;;;;;;;;;;20.57;38.23;95549.81;1019553;29;1911;-61
2021/11/14 01:16:26;;;;;;;;;;;;;;;20.56;38.27;95553.53;1016111;29;1020;-62
2021/11/14 01:16:59;;;;;;;;;;;;;;;20.55;38.09;95546.69;1016977;29;873;-62
2021/11/14 01:17:30;;;;;;;;;;;;;;;20.57;38.63;95551.66;1016267;29;849;-62
2021/11/14 01:18:00;;;;;;;;;;;;;;;20.56;38.53;95556.16;1017065;29;857;-62
2021/11/14 01:18:32;;;;;;;;;;;;;;;20.56;38.58;95561.44;1020918;29;952;-62
2021/11/14 01:19:03;;;;;;;;;;;;;;;20.57;38.13;95549.03;1020840;29;1341;-61
2021/11/14 01:19:33;;;;;;;;;;;;;;;20.57;38.13;95555.09;1019622;29;1708;-62
2021/11/14 01:20:04;;;;;;;;;;;;;;;20.57;38.30;95554.31;1019932;29;995;-62
2021/11/14 01:20:35;;;;;;;;;;;;;;;20.57;38.41;95551.66;1020516;29;1063;-62
2021/11/14 01:21:06;;;;;;;;;;;;;;;20.57;38.35;95549.03;1020348;29;885;-61
2021/11/14 01:21:37;;;;;;;;;;;;;;;20.54;38.07;95550.41;1024233;29;864;-61
2021/11/14 01:22:07;;;;;;;;;;;;;;;20.54;38.05;95555.66;1024114;29;917;-62
2021/11/14 01:22:37;;;;;;;;;;;;;;;20.54;38.66;95550.41;1024155;29;1012;-62
2021/11/14 01:23:08;;;;;;;;;;;;;;;20.56;38.28;95552.75;1020507;29;1004;-62
2021/11/14 01:23:39;;;;;;;;;;;;;;;20.55;38.60;95548.53;1020344;29;885;-61
2021/11/14 01:24:09;;;;;;;;;;;;;;;20.58;38.33;95556.69;1024247;29;1246;-62
2021/11/14 01:24:40;;;;;;;;;;;;;;;20.57;38.24;95557.72;1023294;29;968;-62
2021/11/14 01:25:11;;;;;;;;;;;;;;;20.58;38.25;95553.25;1024476;29;892;-62
2021/11/14 01:25:41;;;;;;;;;;;;;;;20.55;38.17;95557.22;1023291;29;732;-62
2021/11/14 01:26:12;;;;;;;;;;;;;;;20.54;38.45;95555.66;1020006;29;829;-62
2021/11/14 01:26:43;;;;;;;;;;;;;;;20.53;38.64;95554.06;1020409;29;833;-62
2021/11/14 01:27:14;;;;;;;;;;;;;;;20.58;38.22;95558.53;1020461;29;825;-62
2021/11/14 01:27:45;;;;;;;;;;;;;;;20.58;38.41;95555.88;1024338;28;1065;-62
2021/11/14 01:28:16;;;;;;;;;;;;;;;20.57;38.21;95557.72;1028398;28;766;-61
2021/11/14 01:28:47;;;;;;;;;;;;;;;20.59;38.46;95552.97;1024407;29;776;-61
2021/11/14 01:29:17;;;;;;;;;;;;;;;20.56;38.37;95555.38;1023961;29;1003;-61
2021/11/14 01:29:47;;;;;;;;;;;;;;;20.56;38.71;95553.53;1023749;29;965;-61
2021/11/14 01:30:19;;;;;;;;;;;;;;;20.54;38.49;95558.31;1024314;29;1007;-62
2021/11/14 01:30:51;;;;;;;;;;;;;;;20.54;38.36;95554.88;1024559;28;1042;-62
2021/11/14 01:31:21;;;;;;;;;;;;;;;20.57;38.12;95555.09;1023373;29;984;-61
2021/11/14 01:31:51;;;;;;;;;;;;;;;20.56;38.42;95555.38;1023969;29;735;-62
2021/11/14 01:32:22;;;;;;;;;;;;;;;20.57;38.48;95555.09;1024080;29;742;-62
2021/11/14 01:32:57;;;;;;;;;;;;;;;20.57;38.02;95559.56;1023458;29;849;-62
2021/11/14 01:33:28;;;;;;;;;;;;;;;20.54;38.37;95553.03;1020336;29;830;-62
2021/11/14 01:33:58;;;;;;;;;;;;;;;20.52;38.67;95555.16;1024080;29;1233;-62
2021/11/14 01:34:29;;;;;;;;;;;;;;;20.55;38.44;95559.84;1023601;29;991;-62
2021/11/14 01:34:59;;;;;;;;;;;;;;;20.57;38.39;95556.94;1023953;29;865;-62
2021/11/14 01:35:29;;;;;;;;;;;;;;;20.56;38.15;95556.16;1023821;29;845;-62
2021/11/14 01:36:00;;;;;;;;;;;;;;;20.55;38.46;95551.16;1024244;29;1975;-62
2021/11/14 01:36:33;;;;;;;;;;;;;;;20.52;38.06;95557.78;1024486;29;839;-62
2021/11/14 01:37:03;;;;;;;;;;;;;;;20.52;38.53;95557.78;1024450;29;828;-62
2021/11/14 01:37:34;;;;;;;;;;;;;;;20.55;38.11;95551.16;1024425;29;806;-62
2021/11/14 01:38:05;;;;;;;;;;;;;;;20.53;38.31;95556.72;1024573;29;808;-62
2021/11/14 01:38:35;;;;;;;;;;;;;;;20.54;38.48;95549.59;1024183;29;895;-62
2021/11/14 01:39:06;;;;;;;;;;;;;;;20.53;38.71;95554.06;1024323;29;1007;-62
2021/11/14 01:39:36;;;;;;;;;;;;;;;20.54;38.39;95549.59;1024093;29;777;-62
2021/11/14 01:40:07;;;;;;;;;;;;;;;20.55;38.26;95556.44;1023941;29;793;-62
2021/11/14 01:40:42;;;;;;;;;;;;;;;20.55;38.43;95556.44;1023715;28;757;-62
2021/11/14 01:41:12;;;;;;;;;;;;;;;20.51;38.35;95553.56;1023979;29;889;-62
2021/11/14 01:41:43;;;;;;;;;;;;;;;20.51;38.12;95545.66;1023499;29;1234;-62
2021/11/14 01:42:13;;;;;;;;;;;;;;;20.53;38.36;95554.06;1020019;29;892;-62
2021/11/14 01:42:44;;;;;;;;;;;;;;;20.52;38.34;95555.16;1020401;29;855;-62
2021/11/14 01:43:17;;;;;;;;;;;;;;;20.52;38.57;95554.38;1020582;29;785;-61
2021/11/14 01:43:49;;;;;;;;;;;;;;;20.52;38.38;95549.88;1024048;29;1242;-61
2021/11/14 01:44:19;;;;;;;;;;;;;;;20.52;38.15;95551.72;1027834;28;717;-62
2021/11/14 01:44:50;;;;;;;;;;;;;;;20.51;38.48;95553.56;1028084;28;1037;-61
2021/11/14 01:45:20;;;;;;;;;;;;;;;20.50;38.31;95549.38;1024268;29;1213;-61
2021/11/14 01:45:50;;;;;;;;;;;;;;;20.50;38.29;95549.38;1023350;29;869;-61
2021/11/14 01:46:21;;;;;;;;;;;;;;;20.52;38.44;95547.25;1023171;28;1312;-62
2021/11/14 01:46:51;;;;;;;;;;;;;;;20.53;38.17;95542.75;1024347;28;841;-62
2021/11/14 01:47:22;;;;;;;;;;;;;;;20.51;38.50;95548.31;1024021;29;1286;-62
2021/11/14 01:47:52;;;;;;;;;;;;;;;20.51;38.49;95550.16;1019765;29;836;-62
2021/11/14 01:48:23;;;;;;;;;;;;;;;20.49;38.57;95549.63;1020093;29;734;-62
2021/11/14 01:48:53;;;;;;;;;;;;;;;20.48;38.23;95546.25;1019981;29;726;-61
2021/11/14 01:49:23;;;;;;;;;;;;;;;20.48;38.33;95548.88;1024232;29;793;-62
2021/11/14 01:49:54;;;;;;;;;;;;;;;20.50;38.27;95548.59;1024007;29;778;-62
2021/11/14 01:50:24;;;;;;;;;;;;;;;20.49;38.67;95547.78;1023744;29;1121;-61
2021/11/14 01:50:55;;;;;;;;;;;;;;;20.50;38.42;95552.00;1019802;29;773;-61
2021/11/14 01:51:25;;;;;;;;;;;;;;;20.51;38.27;95544.88;1016257;29;1339;-61
2021/11/14 01:51:55;;;;;;;;;;;;;;;20.50;38.72;95552.00;1020000;29;974;-61
2021/11/14 01:52:27;;;;;;;;;;;;;;;20.50;38.52;95549.38;1016215;29;939;-61
2021/11/14 01:52:57;;;;;;;;;;;;;;;20.50;38.49;95551.22;1020529;29;1003;-61
2021/11/14 01:53:28;;;;;;;;;;;;;;;20.51;38.42;95550.94;1024396;29;1058;-61
2021/11/14 01:53:58;;;;;;;;;;;;;;;20.49;38.66;95547.78;1023957;29;1294;-62
2021/11/14 01:54:29;;;;;;;;;;;;;;;20.49;38.22;95544.38;1024026;29;1019;-62
2021/11/14 01:54:59;;;;;;;;;;;;;;;20.48;38.28;95546.25;1024650;29;1015;-62
2021/11/14 01:55:30;;;;;;;;;;;;;;;20.49;38.13;95547.00;1024602;29;949;-61
2021/11/14 01:56:01;;;;;;;;;;;;;;;20.48;38.47;95545.44;1023703;29;1931;-61
2021/11/14 01:56:31;;;;;;;;;;;;;;;20.49;38.27;95552.28;1024182;29;828;-62
2021/11/14 01:57:01;;;;;;;;;;;;;;;20.48;38.54;95546.25;1024241;29;754;-61
2021/11/14 01:57:32;;;;;;;;;;;;;;;20.49;38.56;95553.06;1024344;29;1007;-62
2021/11/14 01:58:02;;;;;;;;;;;;;;;20.47;38.59;95551.75;1020263;29;928;-61
2021/11/14 01:58:35;;;;;;;;;;;;;;;20.45;38.25;95549.41;1023614;29;825;-61
2021/11/14 01:59:05;;;;;;;;;;;;;;;20.45;38.59;95549.41;1023844;29;796;-62
2021/11/14 01:59:37;;;;;;;;;;;;;;;20.48;38.43;95546.25;1024307;29;856;-62
2021/11/14 02:00:09;;;;;;;;;;;;;;;20.48;38.19;95548.88;1024187;29;823;-62
2021/11/14 02:00:41;;;;;;;;;;;;;;;20.49;38.36;95549.63;1023944;29;926;-61
2021/11/14 02:01:28;;;;;;;;;;;;;;;20.49;38.15;95550.44;1022700;29;860;-62
2021/11/14 02:01:58;;;;;;;;;;;;;;;20.45;38.68;95544.16;1020315;29;1147;-61
2021/11/14 02:02:28;;;;;;;;;;;;;;;20.46;38.16;95552.84;1022193;29;710;-61
2021/11/14 02:02:59;;;;;;;;;;;;;;;20.48;38.68;95545.44;1024002;29;1015;-62
2021/11/14 02:03:29;;;;;;;;;;;;;;;20.45;38.60;95549.41;1024215;28;738;-61
2021/11/14 02:04:02;;;;;;;;;;;;;;;20.48;38.28;95548.88;1024116;29;1296;-62
2021/11/14 02:04:32;;;;;;;;;;;;;;;20.47;38.54;95546.50;1023305;29;983;-61
2021/11/14 02:05:03;;;;;;;;;;;;;;;20.48;38.66;95551.50;1020439;29;1257;-62
2021/11/14 02:05:33;;;;;;;;;;;;;;;20.46;38.59;95548.38;1020704;29;912;-61
2021/11/14 02:06:06;;;;;;;;;;;;;;;20.46;38.68;95543.09;1019609;29;715;-62
2021/11/14 02:06:38;;;;;;;;;;;;;;;20.46;38.49;95545.72;1019959;29;817;-62
2021/11/14 02:07:09;;;;;;;;;;;;;;;20.52;38.31;95549.88;1019889;29;716;-62
2021/11/14 02:08:00;;;;;;;;;;;;;;;20.47;38.96;95544.66;1022951;29;1368;-62
2021/11/14 02:08:31;;;;;;;;;;;;;;;20.48;38.49;95546.25;1020178;29;793;-62
2021/11/14 02:09:21;;;;;;;;;;;;;;;20.45;38.58;95541.53;1019917;29;1728;-61
2021/11/14 02:10:11;;;;;;;;;;;;;;;20.47;38.06;95544.66;1021475;29;1272;-62
2021/11/14 02:11:02;;;;;;;;;;;;;;;20.45;38.48;95540.72;1023413;28;1233;-62
2021/11/14 02:11:33;;;;;;;;;;;;;;;20.45;38.18;95546.78;1024541;29;750;-61
2021/11/14 02:12:03;;;;;;;;;;;;;;;20.46;38.78;95548.38;1020165;29;1632;-62
2021/11/14 02:12:34;;;;;;;;;;;;;;;20.47;38.64;95544.66;1019796;29;861;-61
2021/11/14 02:13:05;;;;;;;;;;;;;;;20.49;38.24;95541.75;1020154;29;868;-61
2021/11/14 02:13:41;;;;;;;;;;;;;;;20.48;38.67;95545.44;1018125;29;1381;-62
2021/11/14 02:14:32;;;;;;;;;;;;;;;20.47;38.56;95544.66;1017330;29;1091;-61
2021/11/14 02:15:04;;;;;;;;;;;;;;;20.46;38.35;95544.94;1015811;29;810;-61
2021/11/14 02:15:37;;;;;;;;;;;;;;;20.45;38.51;95541.53;1015556;29;1111;-61
2021/11/14 02:16:27;;;;;;;;;;;;;;;20.45;38.59;95543.34;1017526;29;1044;-61
2021/11/14 02:17:18;;;;;;;;;;;;;;;20.42;38.49;95544.72;1020727;29;1337;-61
2021/11/14 02:17:48;;;;;;;;;;;;;;;20.42;38.70;95544.72;1020160;29;1527;-61
2021/11/14 02:18:18;;;;;;;;;;;;;;;20.42;38.49;95547.34;1016230;29;1614;-61
2021/11/14 02:18:49;;;;;;;;;;;;;;;20.42;38.73;95536.81;1016210;29;690;-61
2021/11/14 02:19:39;;;;;;;;;;;;;;;20.43;38.56;95548.91;1019397;29;1094;-62
2021/11/14 02:20:29;;;;;;;;;;;;;;;20.41;38.64;95545.78;1024217;29;854;-60
2021/11/14 02:21:20;;;;;;;;;;;;;;;20.41;38.56;95537.88;1023939;29;1009;-62
2021/11/14 02:21:51;;;;;;;;;;;;;;;20.41;38.78;95540.50;1023997;29;1417;-61
2021/11/14 02:22:21;;;;;;;;;;;;;;;20.40;38.58;95538.16;1019815;29;951;-60
2021/11/14 02:22:52;;;;;;;;;;;;;;;20.41;38.60;95540.50;1016338;29;1402;-61
2021/11/14 02:23:23;;;;;;;;;;;;;;;20.40;38.46;95536.31;1016323;29;1392;-61
2021/11/14 02:24:14;;;;;;;;;;;;;;;20.43;38.64;95537.59;1020392;29;1301;-61
2021/11/14 02:25:02;;;;;;;;;;;;;;;20.44;38.93;95539.97;1021129;29;1295;-62
2021/11/14 02:25:33;;;;;;;;;;;;;;;20.42;38.95;95538.66;1019967;29;1326;-61
2021/11/14 02:26:24;;;;;;;;;;;;;;;20.41;38.53;95540.50;1019896;29;1016;-62
2021/11/14 02:27:13;;;;;;;;;;;;;;;20.43;38.25;95534.94;1024017;29;1104;-61
2021/11/14 02:27:44;;;;;;;;;;;;;;;20.42;38.69;95539.44;1019953;29;1417;-62
2021/11/14 02:28:15;;;;;;;;;;;;;;;20.43;38.58;95537.59;1016438;29;726;-62
2021/11/14 02:28:45;;;;;;;;;;;;;;;20.43;38.71;95533.13;1016638;29;806;-61
2021/11/14 02:29:16;;;;;;;;;;;;;;;20.43;38.74;95541.00;1019867;29;816;-61
2021/11/14 02:30:07;;;;;;;;;;;;;;;20.40;38.81;95538.94;1020688;29;1111;-62
2021/11/14 02:30:57;;;;;;;;;;;;;;;20.43;38.33;95540.22;1022185;29;1775;-61
2021/11/14 02:31:28;;;;;;;;;;;;;;;20.40;38.74;95536.31;1021162;29;872;-62
2021/11/14 02:32:18;;;;;;;;;;;;;;;20.42;38.76;95543.94;1017665;29;1143;-61
2021/11/14 02:33:09;;;;;;;;;;;;;;;20.40;38.78;95538.94;1019415;29;1029;-61
2021/11/14 02:33:59;;;;;;;;;;;;;;;20.40;38.46;95538.16;1023239;29;1319;-62
2021/11/14 02:34:29;;;;;;;;;;;;;;;20.40;38.85;95544.22;1023406;29;817;-61
2021/11/14 02:34:59;;;;;;;;;;;;;;;20.40;38.54;95548.69;1024448;29;769;-61
2021/11/14 02:35:30;;;;;;;;;;;;;;;20.41;38.72;95540.50;1024285;29;829;-62
2021/11/14 02:36:03;;;;;;;;;;;;;;;20.39;38.58;95542.63;1023078;29;1967;-62
2021/11/14 02:36:34;;;;;;;;;;;;;;;20.41;38.61;95540.50;1024046;29;968;-61
2021/11/14 02:37:04;;;;;;;;;;;;;;;20.39;38.60;95534.72;1024119;29;848;-61
2021/11/14 02:37:35;;;;;;;;;;;;;;;20.39;38.86;95537.38;1020692;29;821;-61
2021/11/14 02:38:05;;;;;;;;;;;;;;;20.38;38.73;95535.78;1023953;29;1551;-61
2021/11/14 02:38:36;;;;;;;;;;;;;;;20.39;38.85;95537.38;1024163;29;803;-61
2021/11/14 02:39:06;;;;;;;;;;;;;;;20.37;38.83;95539.50;1020276;29;1051;-61
2021/11/14 02:39:37;;;;;;;;;;;;;;;20.38;39.00;95533.16;1020029;29;1845;-62
2021/11/14 02:40:07;;;;;;;;;;;;;;;20.36;38.50;95537.91;1019988;29;937;-61
2021/11/14 02:40:38;;;;;;;;;;;;;;;20.38;38.73;95527.88;1019675;29;1096;-61
2021/11/14 02:41:09;;;;;;;;;;;;;;;20.38;38.61;95535.00;1023448;29;825;-61
2021/11/14 02:41:39;;;;;;;;;;;;;;;20.38;38.62;95535.78;1024072;29;1051;-62
2021/11/14 02:42:09;;;;;;;;;;;;;;;20.40;38.96;95538.16;1023790;29;1003;-62
2021/11/14 02:42:40;;;;;;;;;;;;;;;20.38;38.75;95533.16;1023687;29;1042;-61
2021/11/14 02:43:11;;;;;;;;;;;;;;;20.40;38.84;95530.25;1020265;29;809;-62
2021/11/14 02:43:43;;;;;;;;;;;;;;;20.39;38.71;95536.56;1024084;29;726;-61
2021/11/14 02:44:13;;;;;;;;;;;;;;;20.38;38.75;95535.78;1023634;29;1119;-62
2021/11/14 02:44:44;;;;;;;;;;;;;;;20.38;38.90;95530.50;1020115;29;848;-61
2021/11/14 02:45:15;;;;;;;;;;;;;;;20.39;38.86;95531.31;1020241;29;1082;-61
2021/11/14 02:45:46;;;;;;;;;;;;;;;20.36;38.80;95530.00;1020079;29;1008;-62
2021/11/14 02:46:16;;;;;;;;;;;;;;;20.37;38.76;95539.50;1018432;29;971;-62
2021/11/14 02:46:46;;;;;;;;;;;;;;;20.39;38.84;95539.19;1024212;28;887;-61
2021/11/14 02:47:16;;;;;;;;;;;;;;;20.38;38.61;95532.38;1024501;29;750;-61
2021/11/14 02:47:47;;;;;;;;;;;;;;;20.39;38.89;95537.38;1024579;29;754;-61
2021/11/14 02:48:17;;;;;;;;;;;;;;;20.37;38.42;95544.75;1024255;29;1035;-61
2021/11/14 02:48:48;;;;;;;;;;;;;;;20.36;38.64;95542.41;1024500;29;975;-61
2021/11/14 02:49:18;;;;;;;;;;;;;;;20.36;38.51;95545.78;1024491;29;850;-61
2021/11/14 02:49:48;;;;;;;;;;;;;;;20.36;38.74;95547.66;1024290;29;1016;-62
2021/11/14 02:50:19;;;;;;;;;;;;;;;20.37;38.73;95542.13;1023945;29;1094;-62